Time;durP1;ratioP1;P1;durP2;ratioP2;P2;SDS_P1;SDS_P2;PMS_P1;PMS_P2;Temp;Humidity;BMP_temperature;BMP_pressure;BME280_temperature;BME280_humidity;BME280_pressure;Samples;Min_cycle;Max_cycle;Signal;HPM_P1;HPM_P2
2021/03/09 00:01:00;;;;;;;10.82;7.80;;;28.40;97.30;;;;;;5074882;28;20055;-56
2021/03/09 00:03:27;;;;;;;9.30;7.82;;;28.60;97.40;;;;;;5074686;28;20452;-58
2021/03/09 00:05:54;;;;;;;8.68;7.88;;;28.70;96.70;;;;;;5073551;28;20024;-58
2021/03/09 00:08:22;;;;;;;8.00;7.50;;;28.70;97.60;;;;;;5074860;28;20028;-59
2021/03/09 00:10:49;;;;;;;7.78;7.22;;;28.70;96.60;;;;;;5074782;28;20520;-58
2021/03/09 00:13:16;;;;;;;9.35;7.80;;;28.40;95.90;;;;;;5074722;28;20028;-60
2021/03/09 00:15:44;;;;;;;8.05;7.28;;;28.70;96.40;;;;;;5074651;28;20044;-60
2021/03/09 00:18:12;;;;;;;7.97;7.28;;;28.70;95.90;;;;;;5075365;28;20339;-60
2021/03/09 00:20:39;;;;;;;8.13;7.40;;;28.90;96.00;;;;;;5073128;28;20461;-60
2021/03/09 00:23:06;;;;;;;8.18;7.40;;;29.10;96.30;;;;;;5074537;28;20052;-58
2021/03/09 00:25:34;;;;;;;7.80;6.93;;;29.20;96.20;;;;;;5072977;28;20031;-58
2021/03/09 00:28:01;;;;;;;9.25;8.13;;;29.30;95.80;;;;;;5074301;28;20024;-59
2021/03/09 00:30:29;;;;;;;8.43;7.82;;;29.20;97.80;;;;;;5074599;28;20388;-55
2021/03/09 00:32:56;;;;;;;9.50;8.80;;;29.00;96.80;;;;;;5074110;28;20020;-57
2021/03/09 00:35:23;;;;;;;10.20;9.25;;;29.20;99.90;;;;;;5074111;28;20028;-63
2021/03/09 00:37:51;;;;;;;11.02;9.93;;;29.00;99.90;;;;;;5074081;28;20103;-58
2021/03/09 00:40:18;;;;;;;10.10;9.30;;;28.40;99.90;;;;;;5073965;28;20013;-56
2021/03/09 00:42:46;;;;;;;9.95;9.10;;;28.30;99.90;;;;;;5074150;28;20073;-58
2021/03/09 00:45:13;;;;;;;9.82;8.93;;;28.60;99.90;;;;;;5073956;28;20025;-61
2021/03/09 00:47:41;;;;;;;10.15;9.35;;;28.90;99.90;;;;;;5074734;28;20036;-58
2021/03/09 00:50:09;;;;;;;9.32;8.45;;;29.10;99.90;;;;;;5074057;28;20017;-58
2021/03/09 00:52:36;;;;;;;10.52;8.57;;;28.90;99.90;;;;;;5073759;28;20036;-57
2021/03/09 00:55:04;;;;;;;9.50;8.75;;;29.10;99.90;;;;;;5073609;28;20024;-58
2021/03/09 00:57:31;;;;;;;11.38;9.75;;;29.10;99.90;;;;;;5073794;28;20499;-59
2021/03/09 00:59:58;;;;;;;10.55;9.32;;;29.10;99.90;;;;;;5073608;28;20032;-59
2021/03/09 01:02:26;;;;;;;11.18;9.10;;;28.90;99.90;;;;;;5073688;28;20035;-58
2021/03/09 01:04:53;;;;;;;10.05;8.85;;;29.10;99.90;;;;;;5073543;28;20473;-58
2021/03/09 01:07:20;;;;;;;10.10;9.02;;;29.30;99.90;;;;;;5073692;28;20017;-58
2021/03/09 01:09:47;;;;;;;10.65;9.57;;;29.20;99.90;;;;;;5072402;28;20074;-58
2021/03/09 01:12:15;;;;;;;13.68;10.10;;;29.00;99.90;;;;;;5072101;28;20046;-58
2021/03/09 01:14:42;;;;;;;14.57;10.48;;;28.90;99.90;;;;;;5073564;28;20020;-58
2021/03/09 01:17:09;;;;;;;11.20;10.35;;;28.30;99.90;;;;;;5073505;28;20025;-57
2021/03/09 01:19:37;;;;;;;11.60;10.25;;;28.50;99.90;;;;;;5073492;28;20111;-58
2021/03/09 01:22:04;;;;;;;12.70;10.32;;;28.40;99.90;;;;;;5073364;28;20032;-58
2021/03/09 01:24:31;;;;;;;11.65;10.60;;;28.30;99.90;;;;;;5073240;28;20390;-62
2021/03/09 01:26:59;;;;;;;12.15;10.93;;;28.10;99.90;;;;;;5073420;28;20073;-58
2021/03/09 01:29:26;;;;;;;12.80;11.52;;;28.20;99.90;;;;;;5073359;28;20412;-57
2021/03/09 01:31:53;;;;;;;11.40;10.30;;;28.20;99.90;;;;;;5072607;28;20039;-58
2021/03/09 01:34:21;;;;;;;13.05;10.93;;;28.50;99.90;;;;;;5073238;28;20065;-58
2021/03/09 01:36:48;;;;;;;10.88;9.30;;;28.80;99.90;;;;;;5073216;28;20020;-58
2021/03/09 01:39:16;;;;;;;11.65;9.88;;;29.40;99.90;;;;;;5073173;28;20021;-57
2021/03/09 01:41:46;;;;;;;10.68;9.73;;;29.10;99.90;;;;;;5072788;28;20127;-58
2021/03/09 01:44:13;;;;;;;;;;;28.90;99.90;;;;;;5073454;28;20017;-57
2021/03/09 01:46:42;;;;;;;11.75;10.63;;;28.80;99.90;;;;;;5073105;28;20454;-57
2021/03/09 01:49:10;;;;;;;11.77;10.45;;;28.60;99.90;;;;;;5072946;28;20100;-56
2021/03/09 01:51:38;;;;;;;13.25;10.05;;;28.90;99.90;;;;;;5073200;28;20029;-57
2021/03/09 01:54:06;;;;;;;10.90;10.00;;;28.90;99.90;;;;;;5073007;28;20013;-57
2021/03/09 01:56:33;;;;;;;12.80;10.80;;;28.00;99.90;;;;;;5073195;28;20024;-58
2021/03/09 01:59:02;;;;;;;13.32;11.13;;;27.70;99.90;;;;;;5072975;28;20032;-57
2021/03/09 02:01:29;;;;;;;12.70;11.38;;;27.60;99.90;;;;;;5073051;28;20037;-58
2021/03/09 02:03:57;;;;;;;12.02;10.88;;;27.50;99.90;;;;;;5072836;28;20024;-58
2021/03/09 02:06:24;;;;;;;12.15;11.10;;;27.30;99.90;;;;;;5072907;28;20032;-57
2021/03/09 02:08:52;;;;;;;12.68;11.38;;;27.10;99.90;;;;;;5072807;28;20025;-57
2021/03/09 02:11:51;;;;;;;12.38;11.07;;;27.20;99.90;;;;;;5072938;28;20070;-56
2021/03/09 02:14:56;;;;;;;13.77;10.73;;;27.40;99.90;;;;;;5073265;28;20075;-57
2021/03/09 02:17:30;;;;;;;13.57;11.07;;;27.70;99.90;;;;;;5072344;28;20481;-59
2021/03/09 02:20:16;;;;;;;12.10;10.85;;;27.90;99.90;;;;;;5072681;28;20481;-57
2021/03/09 02:23:09;;;;;;;11.32;10.15;;;28.00;99.90;;;;;;5072610;28;20404;-56
2021/03/09 02:25:41;;;;;;;10.95;9.85;;;27.60;99.90;;;;;;5072601;28;20078;-58
2021/03/09 02:28:45;;;;;;;11.10;9.93;;;28.20;99.90;;;;;;5073168;28;20027;-59
2021/03/09 02:31:13;;;;;;;10.30;9.30;;;28.50;99.90;;;;;;5072674;28;20055;-59
2021/03/09 02:34:01;;;;;;;10.80;9.75;;;28.80;99.90;;;;;;5071304;28;20032;-59
2021/03/09 02:36:31;;;;;;;11.10;9.63;;;28.60;99.90;;;;;;5072274;28;20493;-59
2021/03/09 02:39:05;;;;;;;13.77;9.48;;;28.80;99.90;;;;;;5071091;28;20416;-60
2021/03/09 02:41:55;;;;;;;11.20;10.00;;;29.20;99.90;;;;;;5072447;28;20515;-59
2021/03/09 02:44:25;;;;;;;9.88;8.07;;;29.60;99.90;;;;;;5074877;28;20021;-56
2021/03/09 02:46:52;;;;;;;9.70;8.60;;;29.70;99.90;;;;;;5076172;28;20027;-59
2021/03/09 02:49:21;;;;;;;13.05;9.60;;;29.60;99.90;;;;;;5076237;28;20575;-58
2021/03/09 02:51:50;;;;;;;10.82;9.52;;;29.40;99.90;;;;;;5075937;28;20437;-59
2021/03/09 02:54:19;;;;;;;11.32;9.27;;;29.50;99.90;;;;;;5076147;28;20024;-58
2021/03/09 02:56:48;;;;;;;11.68;9.15;;;29.90;99.90;;;;;;5076051;28;20489;-58
2021/03/09 02:59:17;;;;;;;16.15;9.95;;;29.90;99.90;;;;;;5076094;28;20074;-57
2021/03/09 03:01:47;;;;;;;13.52;9.15;;;29.40;99.90;;;;;;5076082;28;20021;-56
2021/03/09 03:04:15;;;;;;;;;;;28.70;99.90;;;;;;5076278;28;20051;-54
2021/03/09 03:06:45;;;;;;;12.75;10.77;;;29.00;99.90;;;;;;5075892;28;20359;-56
2021/03/09 03:09:16;;;;;;;9.95;8.90;;;28.80;99.90;;;;;;5075884;28;20025;-54
2021/03/09 03:11:45;;;;;;;12.60;8.43;;;29.20;99.90;;;;;;5076056;28;20021;-59
2021/03/09 03:14:13;;;;;;;11.25;8.93;;;29.10;99.90;;;;;;5075697;28;20052;-61
2021/03/09 03:16:43;;;;;;;10.55;8.23;;;29.00;99.90;;;;;;5075746;28;20534;-60
2021/03/09 03:19:11;;;;;;;13.23;8.33;;;29.10;99.90;;;;;;5075698;28;20020;-61
2021/03/09 03:21:41;;;;;;;12.55;8.23;;;29.20;99.90;;;;;;5075625;28;20104;-61
2021/03/09 03:24:10;;;;;;;12.40;8.43;;;28.70;99.90;;;;;;5075633;28;20021;-61
2021/03/09 03:26:44;;;;;;;16.20;8.87;;;29.20;99.90;;;;;;5075451;28;20028;-60
2021/03/09 03:29:13;;;;;;;13.43;7.88;;;29.40;99.90;;;;;;5075748;28;20086;-61
2021/03/09 03:31:41;;;;;;;14.05;9.88;;;29.60;99.90;;;;;;5075428;28;20051;-57
2021/03/09 03:34:08;;;;;;;14.10;9.18;;;29.30;99.90;;;;;;5074029;28;20036;-57
2021/03/09 03:36:37;;;;;;;14.43;8.48;;;29.10;99.90;;;;;;5075490;28;20381;-58
2021/03/09 03:39:05;;;;;;;13.25;7.95;;;28.80;99.90;;;;;;5075299;28;20067;-58
2021/03/09 03:41:33;;;;;;;12.15;8.57;;;29.00;99.90;;;;;;5075045;28;20501;-61
2021/03/09 03:44:03;;;;;;;15.75;8.57;;;29.00;99.90;;;;;;5075062;28;20048;-59
2021/03/09 03:46:31;;;;;;;12.40;9.63;;;28.80;99.90;;;;;;5075603;28;20020;-55
2021/03/09 03:48:58;;;;;;;12.25;9.60;;;29.10;99.90;;;;;;5075407;28;20055;-57
2021/03/09 03:51:36;;;;;;;15.80;8.50;;;29.20;99.90;;;;;;5075141;28;20469;-58
2021/03/09 03:54:27;;;;;;;15.50;10.13;;;29.00;99.90;;;;;;5074409;28;20059;-55
2021/03/09 03:57:00;;;;;;;14.00;9.02;;;28.90;99.90;;;;;;5074862;28;20096;-58
2021/03/09 03:59:36;;;;;;;12.32;9.10;;;29.30;99.90;;;;;;5075522;28;20044;-59
2021/03/09 04:02:09;;;;;;;14.30;9.02;;;29.50;99.90;;;;;;5074923;28;20017;-57
2021/03/09 04:04:38;;;;;;;11.38;9.07;;;29.30;99.90;;;;;;5075082;28;20557;-55
2021/03/09 04:07:09;;;;;;;11.00;8.85;;;29.30;99.90;;;;;;5073529;28;20067;-56
2021/03/09 04:09:36;;;;;;;;;;;29.00;99.90;;;;;;5075109;28;20066;-57
2021/03/09 04:12:05;;;;;;;12.30;8.95;;;29.30;99.90;;;;;;5074839;28;19908;-58
2021/03/09 04:14:33;;;;;;;11.88;8.70;;;29.10;99.90;;;;;;5074595;28;20021;-52
2021/03/09 04:17:03;;;;;;;13.90;9.00;;;29.30;99.90;;;;;;5074648;28;20021;-56
2021/03/09 04:19:31;;;;;;;15.00;7.95;;;29.50;99.90;;;;;;5074524;28;20429;-54
2021/03/09 04:22:00;;;;;;;13.68;7.68;;;29.50;99.90;;;;;;5074418;28;20063;-57
2021/03/09 04:24:28;;;;;;;15.18;8.30;;;29.20;99.90;;;;;;5074410;28;20439;-51
2021/03/09 04:26:56;;;;;;;13.30;8.93;;;29.00;99.90;;;;;;5074377;28;20481;-56
2021/03/09 04:29:24;;;;;;;12.95;9.02;;;28.80;99.90;;;;;;5074321;28;20046;-53
2021/03/09 04:31:51;;;;;;;11.88;9.38;;;28.80;99.90;;;;;;5074199;28;20023;-55
2021/03/09 04:34:19;;;;;;;11.93;8.82;;;29.00;99.90;;;;;;5074154;28;20397;-56
2021/03/09 04:36:46;;;;;;;15.60;10.02;;;28.60;99.90;;;;;;5074211;28;20020;-57
2021/03/09 04:39:14;;;;;;;17.00;9.85;;;28.10;99.90;;;;;;5075057;28;20024;-56
2021/03/09 04:41:42;;;;;;;14.02;9.02;;;27.70;99.90;;;;;;5073910;28;20400;-58
2021/03/09 04:44:09;;;;;;;15.07;8.43;;;27.60;99.90;;;;;;5073874;28;20028;-57
2021/03/09 04:46:37;;;;;;;15.07;9.07;;;27.20;99.90;;;;;;5074014;28;20465;-58
2021/03/09 04:49:05;;;;;;;18.00;9.98;;;27.10;99.90;;;;;;5073939;28;20031;-55
2021/03/09 04:51:37;;;;;;;18.67;8.27;;;26.90;99.90;;;;;;5073843;28;20443;-55
2021/03/09 04:54:04;;;;;;;10.85;7.03;;;26.70;99.90;;;;;;5073582;28;20029;-57
2021/03/09 04:56:33;;;;;;;18.65;8.32;;;26.80;99.90;;;;;;5073598;28;20017;-59
2021/03/09 04:59:01;;;;;;;15.02;8.13;;;26.80;99.90;;;;;;5073669;28;20020;-55
2021/03/09 05:01:28;;;;;;;17.73;9.45;;;26.30;99.90;;;;;;5073607;28;20044;-60
2021/03/09 05:03:56;;;;;;;11.50;7.78;;;25.80;99.90;;;;;;5072303;28;20111;-59
2021/03/09 05:06:24;;;;;;;14.88;7.57;;;25.80;99.90;;;;;;5072910;28;20017;-58
2021/03/09 05:08:51;;;;;;;14.02;7.80;;;25.80;99.90;;;;;;5073612;28;20362;-58
2021/03/09 05:11:18;;;;;;;15.75;10.10;;;25.80;99.90;;;;;;5073510;28;20038;-55
2021/03/09 05:13:46;;;;;;;18.05;10.00;;;25.70;99.90;;;;;;5073367;28;20025;-58
2021/03/09 05:16:13;;;;;;;15.07;9.15;;;25.90;99.90;;;;;;5073276;28;20016;-58
2021/03/09 05:18:40;;;;;;;18.27;9.77;;;25.70;99.90;;;;;;5073325;28;20025;-59
2021/03/09 05:21:08;;;;;;;16.55;7.85;;;25.80;99.90;;;;;;5072019;28;20111;-58
2021/03/09 05:23:35;;;;;;;17.60;10.85;;;25.60;99.90;;;;;;5073224;28;20062;-58
2021/03/09 05:26:03;;;;;;;17.00;10.55;;;25.40;99.90;;;;;;5073310;28;20539;-58
2021/03/09 05:28:30;;;;;;;18.60;10.40;;;25.40;99.90;;;;;;5072171;28;20132;-58
2021/03/09 05:30:57;;;;;;;16.20;9.38;;;25.50;99.90;;;;;;5073224;28;20155;-58
2021/03/09 05:33:25;;;;;;;16.70;10.18;;;25.40;99.90;;;;;;5073172;28;20031;-58
2021/03/09 05:35:52;;;;;;;14.45;7.40;;;25.20;99.90;;;;;;5073062;28;20100;-58
2021/03/09 05:38:19;;;;;;;15.38;8.75;;;25.30;99.90;;;;;;5073101;28;20032;-58
2021/03/09 05:40:47;;;;;;;13.88;10.13;;;25.30;99.90;;;;;;5073240;28;20062;-59
2021/03/09 05:43:15;;;;;;;19.05;10.85;;;25.20;99.90;;;;;;5073277;28;20024;-58
2021/03/09 05:45:43;;;;;;;15.68;11.55;;;25.20;99.90;;;;;;5073927;28;20454;-61
2021/03/09 05:48:10;;;;;;;13.82;9.05;;;25.30;99.90;;;;;;5073057;28;20464;-53
2021/03/09 05:50:38;;;;;;;15.50;10.20;;;25.40;99.90;;;;;;5073230;28;20028;-56
2021/03/09 05:53:06;;;;;;;12.07;8.82;;;25.30;99.90;;;;;;5072915;28;20027;-54
2021/03/09 05:55:34;;;;;;;17.58;11.32;;;25.30;99.90;;;;;;5073015;28;20024;-54
2021/03/09 05:58:03;;;;;;;13.52;10.90;;;25.40;99.90;;;;;;5072968;28;20359;-54
2021/03/09 06:00:30;;;;;;;20.77;11.15;;;25.30;99.90;;;;;;5073001;28;20039;-57
2021/03/09 06:02:57;;;;;;;14.50;9.27;;;25.20;99.90;;;;;;5072598;28;20032;-56
2021/03/09 06:05:25;;;;;;;13.43;9.40;;;25.10;99.90;;;;;;5072748;28;20051;-56
2021/03/09 06:07:55;;;;;;;11.55;9.77;;;24.90;99.90;;;;;;5072599;28;20029;-55
2021/03/09 06:10:23;;;;;;;;;;;24.90;99.90;;;;;;5072914;28;20466;-56
2021/03/09 06:12:53;;;;;;;17.15;10.57;;;24.60;99.90;;;;;;5072706;28;19908;-54
2021/03/09 06:15:20;;;;;;;;;;;24.40;99.90;;;;;;5073232;28;20079;-56
2021/03/09 06:17:58;;;;;;;15.43;11.20;;;24.30;99.90;;;;;;5074463;28;19940;-56
2021/03/09 06:20:31;;;;;;;12.52;10.50;;;24.20;99.90;;;;;;5076709;28;20478;-59
2021/03/09 06:23:00;;;;;;;16.33;10.07;;;24.40;99.90;;;;;;5076554;28;20055;-59
2021/03/09 06:25:31;;;;;;;13.20;9.00;;;24.40;99.90;;;;;;5076913;28;20520;-59
2021/03/09 06:28:03;;;;;;;15.55;9.85;;;24.60;99.90;;;;;;5076534;28;20024;-59
2021/03/09 06:30:33;;;;;;;16.20;9.50;;;24.50;99.90;;;;;;5075218;28;20025;-59
2021/03/09 06:33:01;;;;;;;18.95;10.05;;;24.60;99.90;;;;;;5076723;28;20048;-59
2021/03/09 06:35:38;;;;;;;14.75;9.50;;;24.60;99.90;;;;;;5076518;28;20096;-59
2021/03/09 06:38:27;;;;;;;15.50;9.82;;;24.60;99.90;;;;;;5075407;28;20087;-59
2021/03/09 06:41:15;;;;;;;15.52;10.90;;;24.70;99.90;;;;;;5076380;28;20090;-59
2021/03/09 06:43:47;;;;;;;14.07;11.00;;;24.80;99.90;;;;;;5076389;28;20473;-59
2021/03/09 06:46:17;;;;;;;13.63;10.48;;;24.50;99.90;;;;;;5076431;28;20036;-59
2021/03/09 06:48:47;;;;;;;16.63;10.23;;;24.60;99.90;;;;;;5076231;28;20032;-59
2021/03/09 06:51:38;;;;;;;15.73;10.82;;;24.40;99.90;;;;;;5076254;28;20024;-57
2021/03/09 06:54:13;;;;;;;16.05;10.55;;;24.30;99.90;;;;;;5076131;28;20028;-57
2021/03/09 06:56:42;;;;;;;14.60;9.80;;;24.20;99.90;;;;;;5076083;28;20150;-57
2021/03/09 06:59:22;;;;;;;15.68;10.32;;;24.40;99.90;;;;;;5076067;28;20028;-59
2021/03/09 07:02:11;;;;;;;13.10;10.65;;;24.20;99.90;;;;;;5076067;28;20059;-57
2021/03/09 07:04:41;;;;;;;14.45;10.30;;;24.20;99.90;;;;;;5075819;28;20027;-56
2021/03/09 07:07:10;;;;;;;14.65;10.40;;;24.20;99.90;;;;;;5075972;28;20107;-59
2021/03/09 07:09:39;;;;;;;13.90;11.52;;;24.10;99.90;;;;;;5075955;28;20116;-57
2021/03/09 07:12:10;;;;;;;17.13;11.52;;;24.00;99.90;;;;;;5075749;28;20028;-57
2021/03/09 07:14:40;;;;;;;15.52;11.35;;;24.00;99.90;;;;;;5075787;28;20029;-56
2021/03/09 07:17:09;;;;;;;15.35;11.15;;;23.80;99.90;;;;;;5074498;28;20036;-58
2021/03/09 07:19:42;;;;;;;13.70;11.63;;;23.70;99.90;;;;;;5075914;28;20024;-59
2021/03/09 07:22:15;;;;;;;14.95;10.82;;;23.70;99.90;;;;;;5075526;28;20020;-58
2021/03/09 07:25:03;;;;;;;16.75;11.25;;;23.60;99.90;;;;;;5075458;28;20575;-58
2021/03/09 07:28:09;;;;;;;14.18;11.30;;;23.60;99.90;;;;;;5075532;28;20028;-58
2021/03/09 07:30:39;;;;;;;13.27;11.60;;;23.70;99.90;;;;;;5012890;28;20034;-57
2021/03/09 07:33:08;;;;;;;17.20;9.80;;;23.80;99.90;;;;;;5066426;28;20042;-58
2021/03/09 07:35:35;;;;;;;12.60;11.15;;;23.70;99.90;;;;;;5074202;28;20112;-57
2021/03/09 07:38:04;;;;;;;14.98;12.25;;;23.60;99.90;;;;;;5075337;28;20021;-58
2021/03/09 07:40:34;;;;;;;13.75;11.85;;;23.50;99.90;;;;;;5075091;28;20104;-56
2021/03/09 07:43:02;;;;;;;13.20;11.98;;;23.50;99.90;;;;;;5073953;28;20020;-59
2021/03/09 07:45:34;;;;;;;15.43;13.25;;;23.50;99.90;;;;;;5075254;28;20031;-57
2021/03/09 07:48:03;;;;;;;14.80;13.45;;;23.50;99.90;;;;;;5075223;28;20411;-57
2021/03/09 07:50:44;;;;;;;14.57;13.15;;;23.40;99.90;;;;;;5075109;28;20036;-57
2021/03/09 07:53:15;;;;;;;13.82;12.43;;;23.30;99.90;;;;;;5075173;28;20075;-58
2021/03/09 07:55:44;;;;;;;14.20;12.85;;;23.50;99.90;;;;;;5075100;28;20016;-57
2021/03/09 07:58:26;;;;;;;16.55;12.68;;;23.50;99.90;;;;;;5074870;28;20039;-54
2021/03/09 08:01:03;;;;;;;13.95;12.27;;;23.40;99.90;;;;;;5073550;28;20480;-56
2021/03/09 08:03:36;;;;;;;15.88;13.07;;;23.40;99.90;;;;;;5074768;28;20512;-58
2021/03/09 08:06:11;;;;;;;16.25;13.52;;;23.40;99.90;;;;;;5074868;28;20070;-59
2021/03/09 08:08:45;;;;;;;15.70;13.63;;;23.30;99.90;;;;;;5074863;28;20020;-59
2021/03/09 08:11:24;;;;;;;20.15;12.35;;;23.30;99.90;;;;;;5074740;28;20036;-58
2021/03/09 08:14:04;;;;;;;16.55;13.63;;;23.30;99.90;;;;;;5074659;28;20481;-59
2021/03/09 08:16:31;;;;;;;16.52;13.70;;;23.20;99.90;;;;;;5074520;28;20091;-59
2021/03/09 08:19:01;;;;;;;15.60;14.00;;;23.20;99.90;;;;;;5073335;28;20103;-60
2021/03/09 08:21:46;;;;;;;16.77;15.17;;;23.30;99.90;;;;;;5074580;28;20044;-59
2021/03/09 08:24:14;;;;;;;26.40;17.38;;;23.20;99.90;;;;;;5074951;28;20029;-58
2021/03/09 08:26:42;;;;;;;19.90;18.02;;;23.00;99.90;;;;;;5074538;28;20021;-58
2021/03/09 08:29:30;;;;;;;24.48;20.98;;;23.00;99.90;;;;;;5074334;28;20028;-57
2021/03/09 08:32:23;;;;;;;22.42;20.10;;;22.80;99.90;;;;;;5073874;28;20358;-57
2021/03/09 08:34:52;;;;;;;23.92;21.15;;;22.80;99.90;;;;;;5066968;28;20056;-58
2021/03/09 08:37:32;;;;;;;25.23;22.80;;;22.80;99.90;;;;;;5074704;28;20365;-57
2021/03/09 08:40:14;;;;;;;25.65;23.10;;;22.80;99.90;;;;;;5074055;28;20455;-58
2021/03/09 08:43:00;;;;;;;24.50;22.30;;;22.70;99.90;;;;;;5074223;28;20064;-58
2021/03/09 08:45:58;;;;;;;26.25;23.42;;;22.70;99.90;;;;;;5074024;28;20028;-58
2021/03/09 08:48:48;;;;;;;24.92;22.52;;;22.70;99.90;;;;;;5074019;28;20032;-57
2021/03/09 08:51:43;;;;;;;24.27;22.05;;;22.70;99.90;;;;;;5073790;28;20033;-55
2021/03/09 08:54:26;;;;;;;24.05;22.00;;;22.70;99.90;;;;;;5073670;28;20424;-59
2021/03/09 08:56:54;;;;;;;25.38;22.70;;;22.80;99.90;;;;;;5073877;28;20016;-63
2021/03/09 08:59:32;;;;;;;23.73;21.25;;;22.80;99.90;;;;;;5073741;28;20078;-58
2021/03/09 09:02:08;;;;;;;21.58;19.55;;;22.80;99.90;;;;;;5073656;28;20500;-60
2021/03/09 09:04:37;;;;;;;22.67;20.63;;;22.70;99.90;;;;;;5073737;28;20074;-59
2021/03/09 09:07:22;;;;;;;22.23;20.20;;;22.70;99.90;;;;;;5073496;28;20020;-55
2021/03/09 09:09:52;;;;;;;21.45;19.45;;;22.70;99.90;;;;;;5073495;28;20043;-59
2021/03/09 09:12:41;;;;;;;23.67;21.10;;;22.70;99.90;;;;;;5073458;28;20429;-60
2021/03/09 09:15:13;;;;;;;22.70;20.48;;;22.70;99.90;;;;;;5073788;28;20070;-59
2021/03/09 09:17:46;;;;;;;22.20;20.00;;;22.80;99.90;;;;;;5073471;28;20016;-58
2021/03/09 09:20:17;;;;;;;20.08;17.80;;;22.80;99.90;;;;;;5073791;28;20025;-62
2021/03/09 09:22:45;;;;;;;21.25;18.42;;;22.80;99.90;;;;;;5073474;28;20029;-63
2021/03/09 09:25:16;;;;;;;18.80;17.05;;;22.80;99.90;;;;;;5072278;28;20024;-60
2021/03/09 09:27:46;;;;;;;20.10;17.70;;;22.80;99.90;;;;;;5073390;28;20061;-59
2021/03/09 09:30:15;;;;;;;;;;;22.90;99.90;;;;;;5073764;28;20021;-59
2021/03/09 09:32:46;;;;;;;18.98;17.05;;;22.90;99.90;;;;;;5073131;28;19915;-59
2021/03/09 09:35:14;;;;;;;18.63;16.85;;;22.80;99.90;;;;;;5073738;28;20112;-59
2021/03/09 09:38:02;;;;;;;20.27;17.20;;;22.70;99.90;;;;;;5073240;28;20436;-58
2021/03/09 09:40:49;;;;;;;20.88;17.73;;;22.80;99.90;;;;;;5072874;28;20110;-59
2021/03/09 09:43:43;;;;;;;19.73;17.75;;;22.70;99.90;;;;;;5072927;28;20021;-59
2021/03/09 09:46:25;;;;;;;21.80;17.85;;;22.70;99.90;;;;;;5070579;28;20102;-59
2021/03/09 09:48:53;;;;;;;19.52;16.98;;;22.70;99.90;;;;;;5073080;28;20050;-58
2021/03/09 09:51:23;;;;;;;19.23;17.00;;;22.70;99.90;;;;;;5073054;28;20051;-59
2021/03/09 09:53:53;;;;;;;20.63;17.20;;;22.70;99.90;;;;;;5072603;28;20035;-60
2021/03/09 09:56:20;;;;;;;18.17;16.52;;;22.70;99.90;;;;;;5072975;28;20020;-59
2021/03/09 09:58:48;;;;;;;18.17;16.33;;;22.70;99.90;;;;;;5072961;28;20431;-59
2021/03/09 10:01:17;;;;;;;19.00;17.02;;;22.60;99.90;;;;;;5071672;28;20119;-59
2021/03/09 10:03:57;;;;;;;22.45;17.98;;;22.60;99.90;;;;;;5072884;28;20033;-60
2021/03/09 10:06:26;;;;;;;19.27;17.00;;;22.60;99.90;;;;;;5073062;28;20052;-59
2021/03/09 10:08:55;;;;;;;19.63;17.90;;;22.60;99.90;;;;;;5072804;28;20067;-58
2021/03/09 10:11:23;;;;;;;24.30;17.80;;;22.70;99.90;;;;;;5072865;28;20035;-59
2021/03/09 10:14:05;;;;;;;20.05;18.05;;;22.60;99.90;;;;;;5072774;28;20484;-59
2021/03/09 10:16:43;;;;;;;20.35;18.38;;;22.70;99.90;;;;;;5071521;28;20031;-59
2021/03/09 10:19:15;;;;;;;19.73;17.70;;;22.60;99.90;;;;;;5072891;28;20044;-58
2021/03/09 10:21:43;;;;;;;23.65;21.42;;;22.60;99.90;;;;;;5072777;28;20024;-59
2021/03/09 10:24:20;;;;;;;18.90;17.20;;;22.60;99.90;;;;;;5071495;28;20111;-58
2021/03/09 10:26:49;;;;;;;18.95;17.25;;;22.70;99.90;;;;;;5072802;28;20032;-59
2021/03/09 10:29:18;;;;;;;20.52;17.70;;;22.70;99.90;;;;;;5073132;28;20032;-58
2021/03/09 10:31:45;;;;;;;17.88;16.17;;;22.70;99.90;;;;;;5073416;28;20533;-59
2021/03/09 10:34:13;;;;;;;16.95;15.18;;;22.70;99.90;;;;;;5072480;28;20056;-58
2021/03/09 10:37:01;;;;;;;18.60;16.15;;;22.70;99.90;;;;;;5072691;28;20032;-58
2021/03/09 10:39:30;;;;;;;19.80;16.50;;;22.70;99.90;;;;;;5072870;28;20052;-59
2021/03/09 10:42:18;;;;;;;17.58;15.93;;;22.60;99.90;;;;;;5072418;28;20105;-58
2021/03/09 10:44:45;;;;;;;26.50;16.65;;;22.70;99.90;;;;;;5072721;28;20025;-59
2021/03/09 10:47:13;;;;;;;21.40;16.95;;;22.60;99.90;;;;;;5072811;28;20043;-58
2021/03/09 10:49:40;;;;;;;16.85;15.13;;;22.60;99.90;;;;;;5072793;28;20465;-58
2021/03/09 10:52:09;;;;;;;18.83;15.68;;;22.70;99.90;;;;;;5072954;28;20405;-58
2021/03/09 10:54:37;;;;;;;18.00;16.00;;;22.60;99.90;;;;;;5072464;28;20043;-59
2021/03/09 10:57:09;;;;;;;15.43;13.85;;;22.60;99.90;;;;;;5072453;28;20028;-59
2021/03/09 10:59:38;;;;;;;17.77;16.00;;;22.60;99.90;;;;;;5072421;28;20024;-59
2021/03/09 11:02:09;;;;;;;18.52;16.70;;;22.50;99.90;;;;;;5072369;28;20032;-58
2021/03/09 11:04:37;;;;;;;21.10;18.83;;;22.50;99.90;;;;;;5073607;28;20016;-58
2021/03/09 11:07:05;;;;;;;21.52;19.63;;;22.30;99.90;;;;;;5076324;28;20029;-58
2021/03/09 11:09:32;;;;;;;21.20;19.33;;;22.10;99.90;;;;;;5075948;28;20453;-59
2021/03/09 11:12:00;;;;;;;21.40;19.50;;;22.10;99.90;;;;;;5076153;28;20371;-59
2021/03/09 11:14:28;;;;;;;21.92;20.08;;;22.10;99.90;;;;;;5075888;28;20046;-59
2021/03/09 11:16:55;;;;;;;22.83;20.50;;;22.00;99.90;;;;;;5076144;28;20029;-55
2021/03/09 11:19:22;;;;;;;22.85;20.75;;;22.00;99.90;;;;;;5075812;28;20019;-57
2021/03/09 11:21:49;;;;;;;22.92;20.67;;;22.00;99.90;;;;;;5075777;28;20021;-59
2021/03/09 11:24:17;;;;;;;23.10;20.75;;;22.10;99.90;;;;;;5075804;28;20078;-61
2021/03/09 11:26:44;;;;;;;22.35;20.08;;;22.10;99.90;;;;;;5075708;28;20021;-60
2021/03/09 11:29:11;;;;;;;23.23;20.35;;;22.10;99.90;;;;;;5075677;28;20027;-60
2021/03/09 11:31:39;;;;;;;22.77;20.55;;;22.10;99.90;;;;;;5075493;28;20028;-59
2021/03/09 11:34:06;;;;;;;22.65;20.27;;;22.10;99.90;;;;;;5075421;28;20420;-59
2021/03/09 11:36:33;;;;;;;21.98;19.83;;;22.10;99.90;;;;;;5075536;28;20046;-60
2021/03/09 11:39:01;;;;;;;21.88;20.10;;;22.10;99.90;;;;;;5075429;28;20020;-58
2021/03/09 11:41:28;;;;;;;21.52;19.50;;;22.10;99.90;;;;;;5075277;28;20123;-59
2021/03/09 11:43:55;;;;;;;20.38;18.17;;;22.20;99.90;;;;;;5075412;28;20016;-58
2021/03/09 11:46:23;;;;;;;19.52;17.75;;;22.20;99.90;;;;;;5075304;28;20508;-59
2021/03/09 11:48:50;;;;;;;19.02;17.30;;;22.20;99.90;;;;;;5074055;28;20021;-59
2021/03/09 11:51:17;;;;;;;20.17;16.83;;;22.20;99.90;;;;;;5075216;28;20029;-58
2021/03/09 11:53:45;;;;;;;17.08;15.43;;;22.20;99.90;;;;;;5075139;28;20024;-59
2021/03/09 11:56:12;;;;;;;17.27;15.55;;;22.30;99.90;;;;;;5073820;28;20028;-59
2021/03/09 11:58:39;;;;;;;17.20;14.60;;;22.30;99.90;;;;;;5075160;28;20020;-59
2021/03/09 12:01:07;;;;;;;16.00;14.73;;;22.30;99.90;;;;;;5073698;28;20475;-59
2021/03/09 12:03:34;;;;;;;17.38;15.23;;;22.20;99.90;;;;;;5074850;28;20016;-58
2021/03/09 12:06:01;;;;;;;16.02;14.45;;;22.30;99.90;;;;;;5075238;28;20017;-58
2021/03/09 12:08:29;;;;;;;16.80;15.13;;;22.20;99.90;;;;;;5075008;28;20025;-59
2021/03/09 12:10:56;;;;;;;15.88;14.57;;;22.20;99.90;;;;;;5074860;28;20028;-58
2021/03/09 12:13:23;;;;;;;17.60;14.23;;;22.20;99.90;;;;;;5075499;28;20551;-62
2021/03/09 12:15:51;;;;;;;15.57;14.05;;;22.20;99.90;;;;;;5073852;28;20016;-58
2021/03/09 12:18:18;;;;;;;14.80;13.20;;;22.30;99.90;;;;;;5074779;28;20017;-60
2021/03/09 12:20:46;;;;;;;14.15;13.00;;;22.30;99.90;;;;;;5074616;28;20032;-59
2021/03/09 12:23:13;;;;;;;15.57;13.60;;;22.30;99.90;;;;;;5074643;28;20516;-59
2021/03/09 12:25:41;;;;;;;14.73;13.38;;;22.40;99.90;;;;;;5074569;28;20384;-59
2021/03/09 12:28:08;;;;;;;14.93;13.65;;;22.30;99.90;;;;;;5074768;28;20031;-59
2021/03/09 12:30:36;;;;;;;15.77;14.15;;;22.20;99.90;;;;;;5073209;28;20089;-58
2021/03/09 12:33:04;;;;;;;15.40;13.88;;;22.30;99.90;;;;;;5074341;28;20066;-59
2021/03/09 12:35:31;;;;;;;15.90;14.35;;;22.20;99.90;;;;;;5074421;28;20048;-59
2021/03/09 12:37:58;;;;;;;20.27;13.40;;;22.20;99.90;;;;;;5074236;28;20084;-58
2021/03/09 12:40:25;;;;;;;15.82;14.15;;;22.30;99.90;;;;;;5074678;28;20456;-59
2021/03/09 12:42:53;;;;;;;18.75;16.83;;;22.20;99.90;;;;;;5074509;28;20033;-59
2021/03/09 12:45:20;;;;;;;15.20;13.60;;;22.30;99.90;;;;;;5074164;28;20401;-59
2021/03/09 12:47:49;;;;;;;16.38;13.68;;;22.30;99.90;;;;;;5074066;28;20051;-58
2021/03/09 12:50:18;;;;;;;15.88;13.73;;;22.20;99.90;;;;;;5074326;28;20042;-57
2021/03/09 12:52:46;;;;;;;14.75;13.27;;;22.30;99.90;;;;;;5073913;28;20393;-56